Wetterdaten: Woche 24.02.14 - 02.03.14 (KW9)
Datum Zeit Temp. A. Feuchte A. Luftdruck Regen Wind Richtung Taupunkt Windchill Windben
24.02.2014 00:00 1,5 C 78 % 1024,8 hPa 0,0 l/m 0,8 km/h N -1,9 C 1,5 C 4,4 km/h
24.02.2014 01:00 1,5 C 77 % 1024,6 hPa 0,0 l/m 0,5 km/h N -2,2 C 1,5 C 3,6 km/h
24.02.2014 02:00 1,1 C 77 % 1024,1 hPa 0,0 l/m 0,7 km/h N -2,4 C 1,1 C 4,0 km/h
24.02.2014 03:00 -0,3 C 79 % 1023,9 hPa 0,0 l/m 0,0 km/h N -3,6 C -0,3 C 0,0 km/h
24.02.2014 04:00 -1,4 C 81 % 1024,0 hPa 0,0 l/m 0,0 km/h N -4,2 C -1,4 C 0,4 km/h
24.02.2014 05:00 -1,9 C 83 % 1024,2 hPa 0,0 l/m 0,0 km/h N -4,4 C -1,9 C 0,0 km/h
24.02.2014 06:00 -1,8 C 85 % 1024,1 hPa 0,0 l/m 0,0 km/h N -4,0 C -1,8 C 0,8 km/h
24.02.2014 07:00 -1,7 C 85 % 1024,4 hPa 0,0 l/m 0,0 km/h N -3,9 C -1,7 C 0,4 km/h
24.02.2014 08:00 -0,0 C 85 % 1024,3 hPa 0,0 l/m 0,0 km/h N -2,2 C -0,0 C 0,8 km/h
24.02.2014 09:00 4,3 C 80 % 1023,8 hPa 0,0 l/m 0,4 km/h N 1,1 C 4,3 C 4,8 km/h
24.02.2014 10:00 7,1 C 66 % 1023,5 hPa 0,0 l/m 0,8 km/h N 1,1 C 7,1 C 6,0 km/h
24.02.2014 11:00 8,0 C 64 % 1023,0 hPa 0,0 l/m 2,5 km/h N 1,5 C 8,0 C 9,7 km/h
24.02.2014 12:00 9,1 C 63 % 1022,0 hPa 0,0 l/m 1,8 km/h N 2,5 C 9,1 C 10,4 km/h
24.02.2014 13:00 10,5 C 60 % 1021,1 hPa 0,0 l/m 2,2 km/h N 3,1 C 10,5 C 10,1 km/h
24.02.2014 14:00 11,6 C 54 % 1020,4 hPa 0,0 l/m 3,0 km/h N 2,5 C 11,6 C 11,3 km/h
24.02.2014 15:00 11,0 C 57 % 1020,1 hPa 0,0 l/m 6,6 km/h N 2,8 C 10,7 C 19,3 km/h
24.02.2014 16:00 10,1 C 62 % 1020,3 hPa 0,0 l/m 6,2 km/h N 3,0 C 9,7 C 17,7 km/h
24.02.2014 17:00 8,8 C 68 % 1020,5 hPa 0,0 l/m 1,6 km/h N 3,3 C 8,8 C 8,4 km/h
24.02.2014 18:00 6,9 C 70 % 1021,0 hPa 0,0 l/m 0,1 km/h N 1,8 C 6,9 C 2,0 km/h
24.02.2014 19:00 5,0 C 76 % 1021,2 hPa 0,0 l/m 0,1 km/h N 1,1 C 5,0 C 2,4 km/h
24.02.2014 20:00 4,6 C 80 % 1020,9 hPa 0,0 l/m 0,0 km/h N 1,5 C 4,6 C 1,2 km/h
24.02.2014 21:00 3,2 C 80 % 1020,7 hPa 0,0 l/m 0,0 km/h N 0,1 C 3,2 C 0,4 km/h
24.02.2014 22:00 2,2 C 83 % 1020,3 hPa 0,0 l/m 0,0 km/h N -0,5 C 2,2 C 0,4 km/h
24.02.2014 23:00 1,0 C 84 % 1020,0 hPa 0,0 l/m 0,0 km/h N -1,5 C 1,0 C 0,4 km/h
25.02.2014 00:00 0,1 C 85 % 1019,6 hPa 0,0 l/m 0,0 km/h N -2,2 C 0,1 C 0,4 km/h
25.02.2014 01:00 -0,6 C 86 % 1019,2 hPa 0,0 l/m 0,0 km/h N -2,7 C -0,6 C 0,8 km/h
25.02.2014 02:00 0,3 C 85 % 1018,7 hPa 0,0 l/m 0,2 km/h N -1,9 C 0,3 C 1,6 km/h
25.02.2014 03:00 -0,5 C 85 % 1018,4 hPa 0,0 l/m 0,0 km/h N -2,7 C -0,5 C 0,0 km/h
25.02.2014 04:00 -1,3 C 86 % 1018,4 hPa 0,0 l/m 0,0 km/h N -3,3 C -1,3 C 0,0 km/h
25.02.2014 05:00 -1,8 C 85 % 1018,5 hPa 0,0 l/m 0,0 km/h N -4,0 C -1,8 C 0,0 km/h
25.02.2014 06:00 -1,9 C 85 % 1018,7 hPa 0,0 l/m 0,0 km/h N -4,1 C -1,9 C 0,0 km/h
25.02.2014 07:00 -2,2 C 85 % 1018,9 hPa 0,0 l/m 0,0 km/h N -4,4 C -2,2 C 0,0 km/h
25.02.2014 08:00 -0,1 C 81 % 1019,0 hPa 0,0 l/m 0,0 km/h N -2,9 C -0,1 C 0,4 km/h
25.02.2014 09:00 4,4 C 80 % 1018,7 hPa 0,0 l/m 0,3 km/h N 1,2 C 4,4 C 3,2 km/h
25.02.2014 10:00 7,5 C 79 % 1018,4 hPa 0,0 l/m 2,9 km/h N 4,0 C 7,5 C 11,6 km/h
25.02.2014 11:00 10,0 C 67 % 1017,9 hPa 0,0 l/m 3,1 km/h N 4,0 C 10,0 C 9,3 km/h
25.02.2014 12:00 12,3 C 58 % 1017,0 hPa 0,0 l/m 3,8 km/h N 4,1 C 12,3 C 13,7 km/h
25.02.2014 13:00 13,0 C 52 % 1016,4 hPa 0,0 l/m 8,9 km/h N 3,3 C 11,5 C 21,7 km/h
25.02.2014 14:00 12,6 C 53 % 1016,1 hPa 0,0 l/m 10,5 km/h N 3,2 C 10,2 C 24,5 km/h
25.02.2014 15:00 11,5 C 56 % 1016,1 hPa 0,0 l/m 11,7 km/h N 3,1 C 8,4 C 26,5 km/h
25.02.2014 16:00 10,3 C 64 % 1016,1 hPa 0,0 l/m 9,7 km/h N 3,8 C 8,1 C 22,9 km/h
25.02.2014 17:00 8,5 C 71 % 1016,4 hPa 0,0 l/m 7,5 km/h N 3,5 C 7,6 C 19,7 km/h
25.02.2014 18:00 7,1 C 73 % 1017,0 hPa 0,0 l/m 5,1 km/h N 2,5 C 6,9 C 17,7 km/h
25.02.2014 19:00 6,2 C 77 % 1017,4 hPa 0,0 l/m 1,2 km/h N 2,4 C 6,2 C 6,4 km/h
25.02.2014 20:00 4,9 C 81 % 1017,5 hPa 0,0 l/m 0,3 km/h N 1,9 C 4,9 C 4,8 km/h
25.02.2014 21:00 4,4 C 84 % 1017,4 hPa 0,0 l/m 0,5 km/h N 2,0 C 4,4 C 4,0 km/h
25.02.2014 22:00 3,4 C 85 % 1017,3 hPa 0,0 l/m 0,0 km/h N 1,0 C 3,4 C 0,8 km/h
25.02.2014 23:00 1,1 C 84 % 1017,2 hPa 0,0 l/m 0,0 km/h N -1,3 C 1,1 C 0,0 km/h
26.02.2014 00:00 -0,1 C 85 % 1017,3 hPa 0,0 l/m 0,0 km/h N -2,2 C -0,1 C 0,0 km/h
26.02.2014 01:00 -0,6 C 86 % 1017,3 hPa 0,0 l/m 0,0 km/h N -2,7 C -0,6 C 0,0 km/h
26.02.2014 02:00 -1,1 C 86 % 1017,1 hPa 0,0 l/m 0,0 km/h N -3,3 C -1,1 C 0,0 km/h
26.02.2014 03:00 -1,3 C 85 % 1017,1 hPa 0,0 l/m 0,0 km/h N -3,5 C -1,3 C 0,0 km/h
26.02.2014 04:00 0,1 C 83 % 1017,2 hPa 0,0 l/m 0,0 km/h N -2,4 C 0,1 C 0,0 km/h
26.02.2014 05:00 1,6 C 82 % 1017,5 hPa 0,0 l/m 0,0 km/h N -1,1 C 1,6 C 0,0 km/h
26.02.2014 06:00 2,3 C 82 % 1017,8 hPa 0,0 l/m 0,1 km/h N -0,5 C 2,3 C 1,2 km/h
26.02.2014 07:00 2,7 C 82 % 1018,2 hPa 0,0 l/m 0,0 km/h N -0,2 C 2,7 C 0,0 km/h
26.02.2014 08:00 3,2 C 81 % 1018,7 hPa 0,0 l/m 0,0 km/h N 0,3 C 3,2 C 0,8 km/h
26.02.2014 09:00 3,8 C 81 % 1018,8 hPa 0,0 l/m 0,1 km/h N 0,8 C 3,8 C 2,4 km/h
26.02.2014 10:00 4,0 C 81 % 1019,1 hPa 0,0 l/m 0,3 km/h N 1,0 C 4,0 C 3,2 km/h
26.02.2014 11:00 4,3 C 82 % 1019,4 hPa 0,0 l/m 0,4 km/h N 1,5 C 4,3 C 3,2 km/h
26.02.2014 12:00 4,6 C 85 % 1019,4 hPa 0,0 l/m 0,2 km/h N 2,2 C 4,6 C 2,0 km/h
26.02.2014 13:00 5,1 C 86 % 1019,1 hPa 0,0 l/m 0,1 km/h N 2,8 C 5,1 C 2,0 km/h
26.02.2014 14:00 5,6 C 83 % 1018,9 hPa 0,0 l/m 0,3 km/h N 3,0 C 5,6 C 3,6 km/h
26.02.2014 15:00 6,0 C 80 % 1018,6 hPa 0,0 l/m 0,3 km/h N 2,8 C 6,0 C 4,4 km/h
26.02.2014 16:00 5,9 C 79 % 1018,2 hPa 0,0 l/m 1,3 km/h N 2,5 C 5,9 C 6,0 km/h
26.02.2014 17:00 5,3 C 79 % 1018,3 hPa 0,0 l/m 0,0 km/h N 1,9 C 5,3 C 0,4 km/h
26.02.2014 18:00 3,2 C 80 % 1018,7 hPa 0,0 l/m 0,0 km/h N 0,0 C 3,2 C 0,0 km/h
26.02.2014 19:00 1,5 C 83 % 1018,9 hPa 0,0 l/m 0,0 km/h N -1,1 C 1,5 C 0,4 km/h
26.02.2014 20:00 0,6 C 85 % 1018,8 hPa 0,0 l/m 0,0 km/h N -1,7 C 0,6 C 0,0 km/h
26.02.2014 21:00 0,1 C 85 % 1019,1 hPa 0,0 l/m 0,0 km/h N -2,1 C 0,1 C 0,0 km/h
26.02.2014 22:00 0,2 C 85 % 1018,9 hPa 0,0 l/m 0,1 km/h N -2,0 C 0,2 C 1,6 km/h
26.02.2014 23:00 0,7 C 84 % 1018,8 hPa 0,0 l/m 0,9 km/h N -1,7 C 0,7 C 4,0 km/h
27.02.2014 00:00 1,3 C 83 % 1019,1 hPa 0,0 l/m 2,2 km/h N -1,2 C 1,3 C 6,8 km/h
27.02.2014 01:00 0,9 C 84 % 1019,1 hPa 0,0 l/m 0,2 km/h N -1,4 C 0,9 C 1,6 km/h
27.02.2014 02:00 0,9 C 83 % 1019,1 hPa 0,0 l/m 0,1 km/h N -1,7 C 0,9 C 1,2 km/h
27.02.2014 03:00 2,0 C 82 % 1019,1 hPa 0,3 l/m 0,0 km/h N -0,7 C 2,0 C 1,2 km/h
27.02.2014 04:00 2,6 C 82 % 1019,2 hPa 0,0 l/m 0,5 km/h N -0,2 C 2,6 C 4,4 km/h
27.02.2014 05:00 3,9 C 83 % 1019,3 hPa 0,0 l/m 3,0 km/h N 1,2 C 3,9 C 7,6 km/h
27.02.2014 06:00 4,5 C 85 % 1019,6 hPa 0,0 l/m 4,4 km/h N 2,2 C 4,5 C 10,1 km/h
27.02.2014 07:00 4,7 C 84 % 1020,0 hPa 0,0 l/m 3,1 km/h N 2,3 C 4,7 C 8,4 km/h
27.02.2014 08:00 4,9 C 83 % 1020,6 hPa 0,0 l/m 6,9 km/h N 2,3 C 4,4 C 17,3 km/h
27.02.2014 09:00 4,8 C 83 % 1020,7 hPa 0,0 l/m 5,4 km/h N 2,2 C 4,8 C 15,3 km/h
27.02.2014 10:00 5,4 C 82 % 1020,7 hPa 0,0 l/m 6,3 km/h N 2,5 C 5,3 C 16,1 km/h
27.02.2014 11:00 6,5 C 79 % 1020,1 hPa 0,0 l/m 6,2 km/h N 3,1 C 6,2 C 15,7 km/h
27.02.2014 12:00 9,0 C 70 % 1019,1 hPa 0,0 l/m 5,1 km/h N 3,9 C 9,0 C 13,7 km/h
27.02.2014 13:00 10,3 C 66 % 1018,4 hPa 0,0 l/m 1,8 km/h N 4,1 C 10,3 C 8,9 km/h
27.02.2014 14:00 9,7 C 67 % 1017,8 hPa 0,0 l/m 2,0 km/h N 4,0 C 9,7 C 10,5 km/h
27.02.2014 15:00 9,5 C 67 % 1017,3 hPa 0,0 l/m 1,9 km/h N 3,8 C 9,5 C 8,4 km/h
27.02.2014 16:00 9,0 C 69 % 1016,8 hPa 0,0 l/m 1,2 km/h N 3,7 C 9,0 C 6,4 km/h
27.02.2014 17:00 8,1 C 71 % 1016,2 hPa 0,0 l/m 0,2 km/h N 3,1 C 8,1 C 1,6 km/h
27.02.2014 18:00 5,4 C 74 % 1015,9 hPa 0,0 l/m 0,1 km/h N 1,2 C 5,4 C 1,2 km/h
27.02.2014 19:00 3,6 C 79 % 1015,7 hPa 0,0 l/m 0,0 km/h N 0,4 C 3,6 C 0,0 km/h
27.02.2014 20:00 2,3 C 82 % 1015,4 hPa 0,0 l/m 0,0 km/h N -0,5 C 2,3 C 0,0 km/h
27.02.2014 21:00 3,2 C 85 % 1014,8 hPa 0,0 l/m 1,1 km/h N 0,9 C 3,2 C 4,0 km/h
27.02.2014 22:00 5,3 C 85 % 1014,2 hPa 0,0 l/m 1,0 km/h N 2,9 C 5,3 C 6,8 km/h
27.02.2014 23:00 4,4 C 83 % 1013,3 hPa 0,0 l/m 0,0 km/h N 1,9 C 4,4 C 0,8 km/h
28.02.2014 00:00 3,3 C 85 % 1012,7 hPa 0,0 l/m 0,3 km/h N 0,9 C 3,3 C 1,6 km/h
28.02.2014 01:00 3,0 C 85 % 1011,8 hPa 0,0 l/m 0,0 km/h N 0,7 C 3,0 C 1,2 km/h
28.02.2014 02:00 2,0 C 85 % 1011,1 hPa 0,0 l/m 0,1 km/h N -0,2 C 2,0 C 0,8 km/h
28.02.2014 03:00 0,5 C 86 % 1010,8 hPa 0,0 l/m 0,3 km/h N -1,6 C 0,5 C 2,0 km/h
28.02.2014 04:00 1,0 C 84 % 1011,2 hPa 0,0 l/m 0,5 km/h N -1,3 C 1,0 C 4,4 km/h
28.02.2014 05:00 2,1 C 82 % 1011,5 hPa 0,0 l/m 2,9 km/h N -0,6 C 2,1 C 11,7 km/h
28.02.2014 06:00 3,0 C 83 % 1011,0 hPa 0,0 l/m 1,8 km/h N 0,4 C 3,0 C 7,6 km/h
28.02.2014 07:00 2,2 C 84 % 1011,3 hPa 0,0 l/m 0,3 km/h N -0,2 C 2,2 C 2,0 km/h
28.02.2014 08:00 2,7 C 83 % 1011,9 hPa 0,0 l/m 1,2 km/h N 0,2 C 2,7 C 6,0 km/h
28.02.2014 09:00 5,6 C 84 % 1011,1 hPa 0,0 l/m 1,2 km/h N 3,1 C 5,6 C 7,6 km/h
28.02.2014 10:00 7,1 C 79 % 1010,6 hPa 0,0 l/m 2,8 km/h N 3,8 C 7,1 C 9,3 km/h
28.02.2014 11:00 8,4 C 74 % 1010,3 hPa 0,0 l/m 3,1 km/h N 4,1 C 8,4 C 11,7 km/h
28.02.2014 12:00 9,4 C 71 % 1009,3 hPa 0,0 l/m 0,8 km/h N 4,4 C 9,4 C 4,8 km/h
28.02.2014 13:00 10,4 C 65 % 1008,5 hPa 0,0 l/m 2,2 km/h N 4,1 C 10,4 C 9,3 km/h
28.02.2014 14:00 10,1 C 66 % 1008,0 hPa 0,0 l/m 2,6 km/h N 4,1 C 10,1 C 10,5 km/h
28.02.2014 15:00 9,1 C 69 % 1007,3 hPa 0,0 l/m 4,3 km/h N 3,7 C 9,1 C 13,7 km/h
28.02.2014 16:00 9,2 C 68 % 1006,7 hPa 0,0 l/m 4,1 km/h N 3,5 C 9,2 C 14,1 km/h
28.02.2014 17:00 8,3 C 70 % 1006,3 hPa 0,0 l/m 3,7 km/h N 3,1 C 7,9 C 12,1 km/h
28.02.2014 18:00 6,9 C 74 % 1006,4 hPa 0,0 l/m 0,4 km/h N 2,7 C 6,9 C 4,0 km/h
28.02.2014 19:00 4,5 C 77 % 1006,2 hPa 0,0 l/m 0,0 km/h N 0,7 C 4,5 C 0,0 km/h
28.02.2014 20:00 2,9 C 81 % 1005,9 hPa 0,0 l/m 0,0 km/h N -0,1 C 2,9 C 0,0 km/h
28.02.2014 21:00 1,6 C 83 % 1005,8 hPa 0,0 l/m 0,0 km/h N -1,0 C 1,6 C 0,0 km/h
28.02.2014 22:00 1,3 C 85 % 1005,5 hPa 0,0 l/m 0,0 km/h N -1,0 C 1,3 C 0,0 km/h
28.02.2014 23:00 2,6 C 84 % 1005,0 hPa 0,0 l/m 0,0 km/h N 0,2 C 2,6 C 0,0 km/h
01.03.2014 00:00 3,8 C 83 % 1004,6 hPa 0,0 l/m 0,1 km/h N 1,1 C 3,8 C 0,8 km/h
01.03.2014 01:00 4,1 C 83 % 1004,4 hPa 0,0 l/m 0,2 km/h N 1,5 C 4,1 C 2,8 km/h
01.03.2014 02:00 3,8 C 83 % 1004,3 hPa 0,0 l/m 0,0 km/h N 1,1 C 3,8 C 0,8 km/h
01.03.2014 03:00 3,1 C 83 % 1004,3 hPa 0,0 l/m 0,0 km/h N 0,5 C 3,1 C 1,2 km/h
01.03.2014 04:00 2,8 C 83 % 1004,5 hPa 0,0 l/m 0,0 km/h N 0,2 C 2,8 C 0,4 km/h
01.03.2014 05:00 2,9 C 83 % 1004,7 hPa 0,0 l/m 0,0 km/h N 0,2 C 2,9 C 0,8 km/h
01.03.2014 06:00 2,9 C 82 % 1004,9 hPa 0,0 l/m 0,1 km/h N 0,1 C 2,9 C 1,2 km/h
01.03.2014 07:00 2,8 C 82 % 1005,3 hPa 0,0 l/m 0,1 km/h N 0,0 C 2,8 C 2,0 km/h
01.03.2014 08:00 3,0 C 81 % 1005,7 hPa 0,0 l/m 0,0 km/h N 0,1 C 3,0 C 2,0 km/h
01.03.2014 09:00 3,1 C 82 % 1006,0 hPa 0,0 l/m 1,2 km/h N 0,3 C 3,1 C 6,4 km/h
01.03.2014 10:00 4,3 C 83 % 1005,9 hPa 0,0 l/m 2,7 km/h N 1,6 C 4,3 C 9,7 km/h
01.03.2014 11:00 7,3 C 76 % 1005,4 hPa 0,0 l/m 4,5 km/h N 3,2 C 7,3 C 12,9 km/h
01.03.2014 12:00 10,0 C 69 % 1004,6 hPa 0,0 l/m 3,5 km/h N 4,6 C 10,0 C 10,1 km/h
01.03.2014 13:00 13,0 C 57 % 1003,8 hPa 0,0 l/m 6,7 km/h N 4,6 C 11,9 C 20,5 km/h
01.03.2014 14:00 13,5 C 50 % 1003,4 hPa 0,0 l/m 8,6 km/h N 3,2 C 12,2 C 21,3 km/h
01.03.2014 15:00 12,6 C 52 % 1003,1 hPa 0,0 l/m 9,2 km/h N 3,0 C 10,9 C 22,1 km/h
01.03.2014 16:00 11,8 C 56 % 1002,9 hPa 0,0 l/m 6,8 km/h N 3,2 C 11,1 C 19,7 km/h
01.03.2014 17:00 11,0 C 59 % 1003,0 hPa 0,0 l/m 2,1 km/h N 3,2 C 11,0 C 7,2 km/h
01.03.2014 18:00 9,2 C 62 % 1003,3 hPa 0,0 l/m 0,2 km/h N 2,3 C 9,2 C 2,8 km/h
01.03.2014 19:00 6,1 C 70 % 1003,5 hPa 0,0 l/m 0,0 km/h N 1,0 C 6,1 C 0,0 km/h
01.03.2014 20:00 4,3 C 78 % 1003,7 hPa 0,0 l/m 0,0 km/h N 0,7 C 4,3 C 0,0 km/h
01.03.2014 21:00 3,5 C 81 % 1003,9 hPa 0,0 l/m 0,0 km/h N 0,6 C 3,5 C 0,4 km/h
01.03.2014 22:00 2,8 C 83 % 1003,8 hPa 0,0 l/m 0,0 km/h N 0,2 C 2,8 C 0,0 km/h
01.03.2014 23:00 1,7 C 84 % 1003,8 hPa 0,0 l/m 0,0 km/h N -0,7 C 1,7 C 0,0 km/h
02.03.2014 00:00 0,8 C 85 % 1003,6 hPa 0,0 l/m 0,0 km/h N -1,5 C 0,8 C 0,4 km/h
02.03.2014 01:00 0,4 C 85 % 1003,4 hPa 0,0 l/m 0,0 km/h N -1,9 C 0,4 C 0,0 km/h
02.03.2014 02:00 0,1 C 85 % 1003,2 hPa 0,0 l/m 0,0 km/h N -2,1 C 0,1 C 0,0 km/h
02.03.2014 03:00 0,2 C 85 % 1003,1 hPa 0,0 l/m 0,0 km/h N -2,1 C 0,2 C 0,4 km/h
02.03.2014 04:00 0,1 C 84 % 1003,1 hPa 0,0 l/m 0,0 km/h N -2,3 C 0,1 C 0,0 km/h
02.03.2014 05:00 -0,2 C 84 % 1003,5 hPa 0,0 l/m 0,0 km/h N -2,5 C -0,2 C 0,0 km/h
02.03.2014 06:00 -0,6 C 84 % 1004,0 hPa 0,0 l/m 0,0 km/h N -3,0 C -0,6 C 0,0 km/h
02.03.2014 07:00 -0,3 C 82 % 1004,3 hPa 0,0 l/m 0,0 km/h N -3,0 C -0,3 C 0,0 km/h
02.03.2014 08:00 3,4 C 78 % 1004,6 hPa 0,0 l/m 0,1 km/h N -0,0 C 3,4 C 2,4 km/h
02.03.2014 09:00 6,7 C 80 % 1004,8 hPa 0,0 l/m 1,5 km/h N 3,5 C 6,7 C 8,9 km/h
02.03.2014 10:00 8,8 C 77 % 1004,9 hPa 0,0 l/m 1,1 km/h N 5,0 C 8,8 C 6,4 km/h
02.03.2014 11:00 10,1 C 69 % 1004,7 hPa 0,0 l/m 1,3 km/h N 4,6 C 10,1 C 7,2 km/h
02.03.2014 12:00 10,3 C 67 % 1004,5 hPa 0,0 l/m 0,9 km/h N 4,3 C 10,3 C 6,0 km/h
02.03.2014 13:00 10,9 C 63 % 1004,1 hPa 0,0 l/m 0,5 km/h N 4,2 C 10,9 C 4,8 km/h
02.03.2014 14:00 11,6 C 61 % 1003,6 hPa 0,0 l/m 0,6 km/h N 4,3 C 11,6 C 4,8 km/h
02.03.2014 15:00 11,7 C 60 % 1003,3 hPa 0,0 l/m 0,9 km/h N 4,2 C 11,7 C 5,6 km/h
02.03.2014 16:00 11,5 C 58 % 1003,4 hPa 0,0 l/m 0,4 km/h N 3,6 C 11,5 C 3,6 km/h
02.03.2014 17:00 10,6 C 59 % 1003,4 hPa 0,0 l/m 0,0 km/h N 2,9 C 10,6 C 0,4 km/h
02.03.2014 18:00 8,5 C 65 % 1003,4 hPa 0,0 l/m 0,0 km/h N 2,3 C 8,5 C 0,0 km/h
02.03.2014 19:00 7,0 C 73 % 1003,4 hPa 0,0 l/m 0,5 km/h N 2,4 C 7,0 C 3,2 km/h
02.03.2014 20:00 6,5 C 74 % 1002,9 hPa 0,0 l/m 0,1 km/h N 2,2 C 6,5 C 2,8 km/h
02.03.2014 21:00 5,9 C 77 % 1002,6 hPa 0,0 l/m 0,3 km/h N 2,1 C 5,9 C 3,2 km/h
02.03.2014 22:00 6,0 C 77 % 1002,0 hPa 0,0 l/m 0,3 km/h N 2,2 C 6,0 C 3,6 km/h
02.03.2014 23:00 5,9 C 77 % 1001,5 hPa 0,0 l/m 0,4 km/h N 2,1 C 5,9 C 3,6 km/h
Min-Datum _ 25.02.14 01.03.14 02.03.14 - 24.02.14 - 25.02.14 25.02.14 24.02.14
_ Min-Zeit 07:15 14:30 23:45 - 02:45 - 07:45 07:00 02:45
Minimum _ -2,2 C 49 % 1001,3 hPa - 0,0 km/h - -4,4 C -2,2 C 0,0 km/h
Max-Datum _ 01.03.14 24.02.14 24.02.14 27.02.14 25.02.14 - 01.03.14 01.03.14 25.02.14
_ Max-Zeit 14:00 07:45 00:00 03:30 15:45 - 13:00 13:15 15:00
Maximum _ 14,0 C 86 % 1024,9 hPa 0,3 l/m 12,8 km/h
N
- 5,5 C 13,1 C 29,0 km/h
N
Durchschnitt _ 4,7 C 77 % 1013,3 hPa #0,3 l/m 1,4 km/h N 0,8 C 4,6 C 5,1 km/h